Time;durP1;ratioP1;P1;durP2;ratioP2;P2;SDS_P1;SDS_P2;PMS_P1;PMS_P2;Temp;Humidity;BMP_temperature;BMP_pressure;BME280_temperature;BME280_humidity;BME280_pressure;Samples;Min_cycle;Max_cycle;Signal;HPM_P1;HPM_P2
2022/01/01 00:00:20;;;;;;;63.08;38.67;;;10.40;99.90;;;;;;5029776;28;20037;-83
2022/01/01 00:02:46;;;;;;;61.83;37.97;;;10.30;99.90;;;;;;5017010;28;20073;-84
2022/01/01 00:05:13;;;;;;;65.45;32.10;;;10.30;99.90;;;;;;5048566;28;20041;-82
2022/01/01 00:07:39;;;;;;;58.00;37.47;;;10.30;99.90;;;;;;5049293;28;20087;-80
2022/01/01 00:10:06;;;;;;;58.25;37.72;;;10.30;99.90;;;;;;5017691;28;20053;-82
2022/01/01 00:12:32;;;;;;;57.72;31.08;;;10.30;99.90;;;;;;5043181;28;20424;-81
2022/01/01 00:14:58;;;;;;;95.30;60.03;;;10.30;99.90;;;;;;5066111;28;20049;-82
2022/01/01 00:17:24;;;;;;;80.07;46.33;;;10.30;99.90;;;;;;5040063;28;20509;-82
2022/01/01 00:19:50;;;;;;;58.33;33.10;;;10.30;99.90;;;;;;5048798;28;20056;-84
2022/01/01 00:22:15;;;;;;;74.90;41.55;;;10.30;99.90;;;;;;5032172;28;20503;-84
2022/01/01 00:24:41;;;;;;;61.83;39.60;;;10.40;99.90;;;;;;5024388;28;20071;-82
2022/01/01 00:27:07;;;;;;;43.78;27.10;;;10.30;99.90;;;;;;5070402;28;20049;-87
2022/01/01 00:29:33;;;;;;;33.58;24.90;;;10.30;99.90;;;;;;5045621;28;20513;-84
2022/01/01 00:31:59;;;;;;;42.45;24.27;;;10.40;99.90;;;;;;5050953;28;20059;-84
2022/01/01 00:34:24;;;;;;;26.50;16.08;;;10.30;99.90;;;;;;5033913;28;20048;-84
2022/01/01 00:36:50;;;;;;;33.72;15.32;;;10.30;99.90;;;;;;5031561;28;20144;-83
2022/01/01 00:39:16;;;;;;;24.63;15.15;;;10.30;99.90;;;;;;5047513;28;20119;-82
2022/01/01 00:41:42;;;;;;;28.98;12.93;;;10.30;99.90;;;;;;5044007;28;20120;-84
2022/01/01 00:44:08;;;;;;;33.97;21.05;;;10.30;99.90;;;;;;5071498;28;20049;-82
2022/01/01 00:46:35;;;;;;;25.65;15.82;;;10.30;99.90;;;;;;5048357;28;20428;-85
2022/01/01 00:49:01;;;;;;;29.92;19.27;;;10.40;99.90;;;;;;5058115;28;20068;-80
2022/01/01 00:51:26;;;;;;;39.63;19.95;;;10.30;99.90;;;;;;5029591;28;20077;-83
2022/01/01 00:53:53;;;;;;;30.90;20.40;;;10.30;99.90;;;;;;5048177;28;20487;-83
2022/01/01 00:56:19;;;;;;;44.50;25.48;;;10.30;99.90;;;;;;5025620;28;20367;-84
2022/01/01 00:58:44;;;;;;;46.42;31.63;;;10.20;99.90;;;;;;5036575;28;20045;-85
2022/01/01 01:01:10;;;;;;;33.28;20.23;;;10.20;99.90;;;;;;5046327;28;20048;-80
2022/01/01 01:03:36;;;;;;;27.52;15.32;;;10.20;99.90;;;;;;5080358;28;20045;-84
2022/01/01 01:06:02;;;;;;;29.80;17.55;;;10.20;99.90;;;;;;5048612;28;20088;-81
2022/01/01 01:08:30;;;;;;;27.17;14.60;;;10.20;99.90;;;;;;5050969;28;20049;-79
2022/01/01 01:10:57;;;;;;;26.02;12.80;;;10.10;99.90;;;;;;5064198;28;20573;-81
2022/01/01 01:13:24;;;;;;;23.90;12.68;;;10.10;99.90;;;;;;5051148;28;20120;-80
2022/01/01 01:15:50;;;;;;;25.20;14.45;;;10.10;99.90;;;;;;5052737;28;20051;-78
2022/01/01 01:18:16;;;;;;;34.15;14.10;;;10.00;99.90;;;;;;5011532;28;20153;-80
2022/01/01 01:20:42;;;;;;;16.13;10.57;;;10.00;99.90;;;;;;5036232;28;20073;-80
2022/01/01 01:23:08;;;;;;;21.05;11.48;;;9.90;99.90;;;;;;5028082;28;20111;-81
2022/01/01 01:25:40;;;;;;;;;;;9.90;99.90;;;;;;5046862;28;20495;-82
2022/01/01 01:28:10;;;;;;;24.92;12.30;;;9.80;99.90;;;;;;5047773;28;19925;-81
2022/01/01 01:30:37;;;;;;;22.92;11.38;;;9.80;99.90;;;;;;5017327;28;20125;-82
2022/01/01 01:33:04;;;;;;;23.45;13.95;;;9.80;99.90;;;;;;5011410;28;20773;-85
2022/01/01 01:35:30;;;;;;;22.63;12.57;;;9.80;99.90;;;;;;5044258;28;20045;-79
2022/01/01 01:37:56;;;;;;;16.17;9.55;;;9.80;99.90;;;;;;5045908;28;20440;-82
2022/01/01 01:40:21;;;;;;;17.15;10.80;;;9.80;99.90;;;;;;5046007;28;20045;-81
2022/01/01 01:42:47;;;;;;;35.97;11.27;;;9.70;99.90;;;;;;5032958;28;20511;-82
2022/01/01 01:45:18;;;;;;;18.58;8.93;;;9.70;99.90;;;;;;5041931;28;20056;-82
2022/01/01 01:47:44;;;;;;;15.48;8.60;;;9.70;99.90;;;;;;5048169;28;20079;-81
2022/01/01 01:50:12;;;;;;;22.30;9.10;;;9.60;99.90;;;;;;5047544;28;20425;-81
2022/01/01 01:52:40;;;;;;;11.93;7.07;;;9.60;99.90;;;;;;5051673;28;20114;-80
2022/01/01 01:55:08;;;;;;;19.38;6.68;;;9.60;99.90;;;;;;5075845;28;20124;-82
2022/01/01 01:57:36;;;;;;;11.38;7.75;;;9.60;99.90;;;;;;5046138;28;20045;-79
2022/01/01 02:00:08;;;;;;;11.60;7.20;;;9.60;99.90;;;;;;5048741;28;20045;-83
2022/01/01 02:02:33;;;;;;;14.55;8.50;;;9.60;99.90;;;;;;5042959;28;20147;-81
2022/01/01 02:04:59;;;;;;;17.08;9.07;;;9.60;99.90;;;;;;5049018;28;20115;-80
2022/01/01 02:07:25;;;;;;;19.88;8.65;;;9.60;99.90;;;;;;5052071;28;20037;-82
2022/01/01 02:09:51;;;;;;;;;;;9.70;99.90;;;;;;5048792;28;20052;-82
2022/01/01 02:12:17;;;;;;;22.20;10.23;;;9.70;99.90;;;;;;5053091;28;19927;-80
2022/01/01 02:17:34;;;;;;;19.05;9.10;;;9.70;99.90;;;;;;5053365;28;20048;-82
2022/01/01 02:20:13;;;;;;;19.00;10.77;;;9.90;99.90;;;;;;5053030;28;20033;-80
2022/01/01 02:22:50;;;;;;;31.85;11.93;;;9.80;99.90;;;;;;5031256;28;20041;-83
2022/01/01 02:25:18;;;;;;;31.15;14.13;;;9.80;99.90;;;;;;5045923;28;20065;-80
2022/01/01 02:27:44;;;;;;;20.58;11.15;;;10.00;99.90;;;;;;5078102;28;20055;-82
2022/01/01 02:30:12;;;;;;;22.90;14.15;;;10.00;99.90;;;;;;5052259;28;20037;-82
2022/01/01 02:32:39;;;;;;;33.00;16.02;;;10.10;99.90;;;;;;5085926;28;20051;-79
2022/01/01 02:35:07;;;;;;;30.88;15.00;;;10.10;99.90;;;;;;5046875;28;20075;-79
2022/01/01 02:37:35;;;;;;;29.77;17.25;;;10.10;99.90;;;;;;5054390;28;20490;-78
2022/01/01 02:40:01;;;;;;;31.58;15.82;;;10.20;99.90;;;;;;5056137;28;20478;-80
2022/01/01 02:42:26;;;;;;;37.45;20.95;;;10.20;99.90;;;;;;5048921;28;20116;-78
2022/01/01 02:44:54;;;;;;;36.20;18.88;;;10.20;99.90;;;;;;5032553;28;20038;-81
2022/01/01 02:47:20;;;;;;;32.05;17.75;;;10.20;99.90;;;;;;5063194;28;20044;-83
2022/01/01 02:49:46;;;;;;;39.25;15.00;;;10.20;99.90;;;;;;5053187;28;20087;-82
2022/01/01 02:52:12;;;;;;;33.00;17.67;;;10.30;99.90;;;;;;5051223;28;20080;-80
2022/01/01 02:54:37;;;;;;;35.92;18.63;;;10.30;99.90;;;;;;5049137;28;20396;-82
2022/01/01 02:57:03;;;;;;;28.92;15.60;;;10.40;99.90;;;;;;5047059;28;20047;-80
2022/01/01 02:59:29;;;;;;;33.33;16.63;;;10.30;99.90;;;;;;5048726;28;20120;-81
2022/01/01 03:01:55;;;;;;;22.02;11.98;;;10.40;99.90;;;;;;5046359;28;20140;-81
2022/01/01 03:04:20;;;;;;;32.40;13.80;;;10.40;99.90;;;;;;5005749;28;20041;-80
2022/01/01 03:06:52;;;;;;;19.98;12.25;;;10.40;99.90;;;;;;5052764;28;20077;-80
2022/01/01 03:09:23;;;;;;;28.95;11.75;;;10.40;99.90;;;;;;5050249;28;20041;-83
2022/01/01 03:11:49;;;;;;;30.83;12.43;;;10.40;99.90;;;;;;5049376;28;20533;-81
2022/01/01 03:14:17;;;;;;;17.20;9.80;;;10.40;99.90;;;;;;5048870;28;20041;-84
2022/01/01 03:16:47;;;;;;;22.23;9.18;;;10.30;99.90;;;;;;5048203;28;20076;-81
2022/01/01 03:19:13;;;;;;;32.40;11.98;;;10.30;99.90;;;;;;5045056;28;20470;-79
2022/01/01 03:21:39;;;;;;;31.17;11.75;;;10.40;99.90;;;;;;5051720;28;20045;-80
2022/01/01 03:24:06;;;;;;;23.00;10.88;;;10.30;99.90;;;;;;5051807;28;20587;-79
2022/01/01 03:26:32;;;;;;;29.27;11.57;;;10.40;99.90;;;;;;5041408;28;20111;-80
2022/01/01 03:28:58;;;;;;;19.85;10.10;;;10.40;99.90;;;;;;5048662;28;20478;-81
2022/01/01 03:31:25;;;;;;;46.10;19.23;;;10.30;99.90;;;;;;5044887;28;20406;-81
2022/01/01 03:33:52;;;;;;;33.78;12.02;;;10.40;99.90;;;;;;5045006;28;20051;-82
2022/01/01 03:36:17;;;;;;;;;;;10.40;99.90;;;;;;5047832;28;20037;-80
2022/01/01 03:38:43;;;;;;;16.98;11.77;;;10.40;99.90;;;;;;5045529;28;20042;-78
2022/01/01 03:41:09;;;;;;;19.10;12.23;;;10.40;99.90;;;;;;5042495;28;20116;-82
2022/01/01 03:43:34;;;;;;;29.02;15.40;;;10.40;99.90;;;;;;5049575;28;20044;-81
2022/01/01 03:46:00;;;;;;;26.13;12.70;;;10.40;99.90;;;;;;5034510;28;20051;-81
2022/01/01 03:48:26;;;;;;;24.85;12.00;;;10.40;99.90;;;;;;5051254;28;20051;-82
2022/01/01 03:50:51;;;;;;;29.88;13.80;;;10.30;99.90;;;;;;5050721;28;20051;-77
2022/01/01 03:53:17;;;;;;;21.60;10.85;;;10.40;99.90;;;;;;5054806;28;20083;-80
2022/01/01 03:55:43;;;;;;;16.52;8.93;;;10.40;99.90;;;;;;5049701;28;20037;-81
2022/01/01 03:58:09;;;;;;;;;;;10.30;99.90;;;;;;5051101;28;20044;-78
2022/01/01 04:00:36;;;;;;;20.90;9.88;;;10.40;99.90;;;;;;5046763;28;20298;-80
2022/01/01 04:03:10;;;;;;;21.50;10.40;;;10.40;99.90;;;;;;5053067;28;20116;-80
2022/01/01 04:05:36;;;;;;;21.95;9.77;;;10.40;99.90;;;;;;5060306;28;20032;-76
2022/01/01 04:08:03;;;;;;;16.33;8.95;;;10.40;99.90;;;;;;5066240;28;20124;-80
2022/01/01 04:10:31;;;;;;;25.58;10.07;;;10.40;99.90;;;;;;5057322;28;20052;-80
2022/01/01 04:13:01;;;;;;;22.98;9.35;;;10.40;99.90;;;;;;5047516;28;20049;-80
2022/01/01 04:15:29;;;;;;;17.42;9.68;;;10.40;99.90;;;;;;5048366;28;20571;-83
2022/01/01 04:17:59;;;;;;;19.60;9.52;;;10.40;99.90;;;;;;5067995;28;20045;-81
2022/01/01 04:20:26;;;;;;;25.55;11.27;;;10.40;99.90;;;;;;5051168;28;20118;-80
2022/01/01 04:22:56;;;;;;;17.50;8.32;;;10.30;99.90;;;;;;5038075;28;20167;-81
2022/01/01 04:25:23;;;;;;;19.98;9.02;;;10.30;99.90;;;;;;5050633;28;20140;-82
2022/01/01 04:27:50;;;;;;;20.00;7.80;;;10.20;99.90;;;;;;5039364;28;20491;-80
2022/01/01 04:30:15;;;;;;;18.75;9.00;;;10.20;99.90;;;;;;5050255;28;20082;-82
2022/01/01 04:32:41;;;;;;;30.90;10.98;;;10.30;99.90;;;;;;5037351;28;20068;-82
2022/01/01 04:35:07;;;;;;;11.75;6.85;;;10.30;99.90;;;;;;5046886;28;20052;-81
2022/01/01 04:37:33;;;;;;;15.50;8.23;;;10.30;99.90;;;;;;5032279;28;20454;-79
2022/01/01 04:39:59;;;;;;;12.00;6.60;;;10.30;99.90;;;;;;5039724;28;20037;-80
2022/01/01 04:42:25;;;;;;;;;;;10.30;99.90;;;;;;5051338;28;20036;-82
2022/01/01 04:44:52;;;;;;;22.40;8.95;;;10.30;99.90;;;;;;5054239;28;19920;-81
2022/01/01 04:47:18;;;;;;;14.60;9.45;;;10.30;99.90;;;;;;5048507;28;20655;-83
2022/01/01 04:49:43;;;;;;;16.02;8.43;;;10.30;99.90;;;;;;5033535;28;20072;-83
2022/01/01 04:52:09;;;;;;;25.05;8.60;;;10.30;99.90;;;;;;5047914;28;20041;-84
2022/01/01 04:54:39;;;;;;;24.05;10.27;;;10.20;99.90;;;;;;5047955;28;20045;-81
2022/01/01 04:57:05;;;;;;;15.07;8.85;;;10.20;99.90;;;;;;5032954;28;20063;-83
2022/01/01 04:59:31;;;;;;;;;;;10.20;99.90;;;;;;5046816;28;20191;-84
2022/01/01 05:01:56;;;;;;;25.08;9.55;;;10.20;99.90;;;;;;5050778;28;19995;-82
2022/01/01 05:04:22;;;;;;;20.02;9.73;;;10.20;99.90;;;;;;5033218;28;20044;-83
2022/01/01 05:06:49;;;;;;;16.50;7.90;;;10.30;99.90;;;;;;5050519;28;20060;-82
2022/01/01 05:09:20;;;;;;;28.75;9.50;;;10.20;99.90;;;;;;5033337;28;20083;-83
2022/01/01 05:11:47;;;;;;;35.78;11.68;;;10.40;99.90;;;;;;5044633;28;20483;-80
2022/01/01 05:14:14;;;;;;;20.88;10.45;;;10.30;99.90;;;;;;5045166;28;20048;-85
2022/01/01 05:16:40;;;;;;;16.35;10.73;;;10.30;99.90;;;;;;5047505;28;20446;-81
2022/01/01 05:19:06;;;;;;;;;;;10.30;99.90;;;;;;5047119;28;20029;-84
2022/01/01 05:21:35;;;;;;;16.48;9.02;;;10.40;99.90;;;;;;5051924;28;19923;-83
2022/01/01 05:24:03;;;;;;;20.73;11.70;;;10.40;99.90;;;;;;5049646;28;20128;-81
2022/01/01 05:26:29;;;;;;;21.13;12.65;;;10.40;99.90;;;;;;5048958;28;20057;-81
2022/01/01 05:28:54;;;;;;;;;;;10.40;99.90;;;;;;5052593;28;20124;-80
2022/01/01 05:31:20;;;;;;;30.65;15.80;;;10.40;99.90;;;;;;5056760;28;19988;-80
2022/01/01 05:33:48;;;;;;;21.92;13.18;;;10.40;99.90;;;;;;5051190;28;20045;-80
2022/01/01 05:36:14;;;;;;;27.50;15.32;;;10.40;99.90;;;;;;5048710;28;20045;-81
2022/01/01 05:38:41;;;;;;;45.50;13.80;;;10.40;99.90;;;;;;5052649;28;20148;-79
2022/01/01 05:41:07;;;;;;;30.08;15.43;;;10.50;99.90;;;;;;5053089;28;20051;-77
2022/01/01 05:43:33;;;;;;;28.77;15.75;;;10.50;99.90;;;;;;5052095;28;20132;-81
2022/01/01 05:45:58;;;;;;;38.65;16.52;;;10.50;99.90;;;;;;5019494;28;20040;-82
2022/01/01 05:48:24;;;;;;;33.40;16.42;;;10.50;99.90;;;;;;5035568;28;20037;-82
2022/01/01 05:50:50;;;;;;;31.05;16.58;;;10.50;99.90;;;;;;5037340;28;20055;-79
2022/01/01 05:53:16;;;;;;;37.67;21.92;;;10.50;99.90;;;;;;5034225;28;20098;-81
2022/01/01 05:55:43;;;;;;;29.83;14.73;;;10.50;99.90;;;;;;5049968;28;20052;-80
2022/01/01 05:58:08;;;;;;;34.40;17.27;;;10.40;99.90;;;;;;5049883;28;20378;-81
2022/01/01 06:00:35;;;;;;;26.95;17.95;;;10.40;99.90;;;;;;5074639;28;20041;-82
2022/01/01 06:03:00;;;;;;;27.30;14.10;;;10.50;99.90;;;;;;5073521;28;20503;-81
2022/01/01 06:05:30;;;;;;;34.45;15.45;;;10.40;99.90;;;;;;5031005;28;20049;-82
2022/01/01 06:07:57;;;;;;;30.52;13.90;;;10.40;99.90;;;;;;5045507;28;20533;-82
2022/01/01 06:10:24;;;;;;;22.00;10.40;;;10.40;99.90;;;;;;5052541;28;20064;-82
2022/01/01 06:12:50;;;;;;;27.35;12.68;;;10.30;99.90;;;;;;5030582;28;20041;-81
2022/01/01 06:15:15;;;;;;;17.20;10.20;;;10.30;99.90;;;;;;5052847;28;20467;-83
2022/01/01 06:17:41;;;;;;;24.02;10.38;;;10.30;99.90;;;;;;5047731;28;20033;-80
2022/01/01 06:20:07;;;;;;;18.42;9.43;;;10.30;99.90;;;;;;5036266;28;20112;-82
2022/01/01 06:22:33;;;;;;;14.95;8.88;;;10.30;99.90;;;;;;5055896;28;20438;-78
2022/01/01 06:24:59;;;;;;;10.35;6.72;;;10.20;99.90;;;;;;5071353;28;20041;-82
2022/01/01 06:27:25;;;;;;;22.15;10.10;;;10.20;99.90;;;;;;5058713;28;20508;-82
2022/01/01 06:29:50;;;;;;;15.85;7.93;;;10.20;99.90;;;;;;5048353;28;20115;-82
2022/01/01 06:32:16;;;;;;;18.42;8.38;;;10.20;99.90;;;;;;5054449;28;20057;-84
2022/01/01 06:34:42;;;;;;;15.68;8.98;;;10.20;99.90;;;;;;5053503;28;20045;-83
2022/01/01 06:37:08;;;;;;;19.67;8.70;;;10.20;99.90;;;;;;5048937;28;20053;-78
2022/01/01 06:39:34;;;;;;;16.92;9.82;;;10.20;99.90;;;;;;5049910;28;20041;-80
2022/01/01 06:42:00;;;;;;;23.13;7.28;;;10.20;99.90;;;;;;5052748;28;20124;-82
2022/01/01 06:44:26;;;;;;;17.52;8.10;;;10.20;99.90;;;;;;5046613;28;20041;-83
2022/01/01 06:46:53;;;;;;;15.35;7.40;;;10.20;99.90;;;;;;5046623;28;20068;-82
2022/01/01 06:49:18;;;;;;;17.23;8.18;;;10.20;99.90;;;;;;5044179;28;20067;-80
2022/01/01 06:51:44;;;;;;;16.33;8.27;;;10.20;99.90;;;;;;5085521;28;20044;-83
2022/01/01 06:54:10;;;;;;;18.25;8.75;;;10.20;99.90;;;;;;5053685;28;20041;-79
2022/01/01 06:56:35;;;;;;;14.82;7.05;;;10.20;99.90;;;;;;5057749;28;20041;-80
2022/01/01 06:59:01;;;;;;;14.70;6.75;;;10.20;99.90;;;;;;5052190;28;20136;-84
2022/01/01 07:01:27;;;;;;;19.83;7.95;;;10.30;99.90;;;;;;5052042;28;20049;-81
2022/01/01 07:03:52;;;;;;;16.08;6.75;;;10.30;99.90;;;;;;5052095;28;20513;-80
2022/01/01 07:06:18;;;;;;;21.08;7.35;;;10.30;99.90;;;;;;5044956;28;20094;-80
2022/01/01 07:08:44;;;;;;;22.90;8.48;;;10.30;99.90;;;;;;5050031;28;20375;-83
2022/01/01 07:11:09;;;;;;;22.17;8.48;;;10.40;99.90;;;;;;5034536;28;20049;-83
2022/01/01 07:13:35;;;;;;;13.93;8.43;;;10.30;99.90;;;;;;5052472;28;20102;-85
2022/01/01 07:16:01;;;;;;;13.13;6.63;;;10.30;99.90;;;;;;5051294;28;20045;-84
2022/01/01 07:18:26;;;;;;;13.32;6.43;;;10.40;99.90;;;;;;5042779;28;20048;-80
2022/01/01 07:20:52;;;;;;;19.42;8.35;;;10.40;99.90;;;;;;5052725;28;20063;-83
2022/01/01 07:23:18;;;;;;;14.38;5.57;;;10.30;99.90;;;;;;5047482;28;20045;-81
2022/01/01 07:25:44;;;;;;;13.40;6.82;;;10.30;99.90;;;;;;5033244;28;20414;-82
2022/01/01 07:28:13;;;;;;;15.00;7.07;;;10.40;99.90;;;;;;5051453;28;20178;-82
2022/01/01 07:30:39;;;;;;;13.13;7.57;;;10.40;99.90;;;;;;5049319;28;20136;-81
2022/01/01 07:33:04;;;;;;;16.45;6.40;;;10.40;99.90;;;;;;5054628;28;20163;-81
2022/01/01 07:35:32;;;;;;;15.93;6.63;;;10.40;99.90;;;;;;5019878;28;20056;-82
2022/01/01 07:37:58;;;;;;;14.35;7.15;;;10.50;99.90;;;;;;5043514;28;20068;-82
2022/01/01 07:40:24;;;;;;;18.25;8.18;;;10.50;99.90;;;;;;5049587;28;20062;-80
2022/01/01 07:42:49;;;;;;;15.32;7.22;;;10.50;99.90;;;;;;5033214;28;20037;-83
2022/01/01 07:45:16;;;;;;;17.60;8.13;;;10.60;99.90;;;;;;5045776;28;20181;-80
2022/01/01 07:47:41;;;;;;;;;;;10.60;99.90;;;;;;5029444;28;20040;-83
2022/01/01 07:50:08;;;;;;;15.52;6.97;;;10.60;99.90;;;;;;5048031;28;20471;-82
2022/01/01 07:52:34;;;;;;;25.25;8.82;;;10.60;99.90;;;;;;5036106;28;20052;-78
2022/01/01 07:54:59;;;;;;;10.95;5.18;;;10.60;99.90;;;;;;5058819;28;20065;-81
2022/01/01 07:57:25;;;;;;;9.70;6.25;;;10.60;99.90;;;;;;5049385;28;20037;-80
2022/01/01 07:59:51;;;;;;;12.30;5.78;;;10.60;99.90;;;;;;5052013;28;20036;-80
2022/01/01 08:02:16;;;;;;;12.75;6.95;;;10.60;99.90;;;;;;5052436;28;20155;-82
2022/01/01 08:04:42;;;;;;;22.35;7.07;;;10.70;99.90;;;;;;5037459;28;20052;-80
2022/01/01 08:07:08;;;;;;;11.90;6.65;;;10.70;99.90;;;;;;5049954;28;20048;-81
2022/01/01 08:09:33;;;;;;;9.52;5.65;;;10.70;99.90;;;;;;5040094;28;20090;-81
2022/01/01 08:11:59;;;;;;;22.20;7.75;;;10.70;99.90;;;;;;5049309;28;20052;-85
2022/01/01 08:14:25;;;;;;;18.50;7.72;;;10.70;99.90;;;;;;5034029;28;20155;-81
2022/01/01 08:16:58;;;;;;;27.05;8.20;;;10.80;99.90;;;;;;5023404;28;20045;-81
2022/01/01 08:19:25;;;;;;;11.70;6.35;;;10.80;99.90;;;;;;5081254;28;20529;-82
2022/01/01 08:21:51;;;;;;;12.52;6.28;;;10.90;99.90;;;;;;5049841;28;20041;-78
2022/01/01 08:24:17;;;;;;;12.60;6.28;;;10.90;99.90;;;;;;5049851;28;20048;-81
2022/01/01 08:26:43;;;;;;;16.13;8.07;;;10.90;99.90;;;;;;5045449;28;20048;-79
2022/01/01 08:29:08;;;;;;;9.57;6.00;;;10.90;99.90;;;;;;5038810;28;20114;-82
2022/01/01 08:31:34;;;;;;;15.45;6.75;;;10.90;99.90;;;;;;5051074;28;20091;-81
2022/01/01 08:34:00;;;;;;;15.95;6.93;;;11.00;99.90;;;;;;5050753;28;20487;-80
2022/01/01 08:36:25;;;;;;;11.40;7.18;;;11.00;99.90;;;;;;5029763;28;20041;-85
2022/01/01 08:38:51;;;;;;;17.50;8.82;;;11.00;99.90;;;;;;5050899;28;20037;-79
2022/01/01 08:41:17;;;;;;;16.15;8.10;;;11.00;99.90;;;;;;5053320;28;20044;-78
2022/01/01 08:43:42;;;;;;;12.90;7.68;;;11.00;99.90;;;;;;5054676;28;20471;-85
2022/01/01 08:46:08;;;;;;;12.88;6.68;;;11.10;99.90;;;;;;5040437;28;20455;-79
2022/01/01 08:48:34;;;;;;;16.92;9.30;;;11.10;99.90;;;;;;5048526;28;20033;-79
2022/01/01 08:51:17;;;;;;;14.77;7.55;;;11.10;99.90;;;;;;5050555;28;20036;-81
2022/01/01 08:53:43;;;;;;;14.40;7.80;;;11.20;99.90;;;;;;5058565;28;20068;-79
2022/01/01 08:56:10;;;;;;;19.98;8.20;;;11.20;99.90;;;;;;5050128;28;20048;-79
2022/01/01 08:58:35;;;;;;;20.67;7.60;;;11.20;99.90;;;;;;5030695;28;20124;-80
2022/01/01 09:01:02;;;;;;;9.27;6.85;;;11.30;99.90;;;;;;5046333;28;20116;-80
2022/01/01 09:03:28;;;;;;;22.67;8.80;;;11.30;99.90;;;;;;5044364;28;20151;-84
2022/01/01 09:05:54;;;;;;;19.10;8.18;;;11.40;99.90;;;;;;5050867;28;20505;-80
2022/01/01 09:08:20;;;;;;;22.27;8.95;;;11.40;99.90;;;;;;5051881;28;20041;-78
2022/01/01 09:10:45;;;;;;;15.13;7.78;;;11.50;99.90;;;;;;5049844;28;20044;-80
2022/01/01 09:13:11;;;;;;;16.20;7.97;;;11.60;99.90;;;;;;5048198;28;20551;-79
2022/01/01 09:15:37;;;;;;;12.73;8.25;;;11.60;99.90;;;;;;5039246;28;20040;-80
2022/01/01 09:18:03;;;;;;;14.02;7.50;;;11.60;99.90;;;;;;5030230;28;20045;-80
2022/01/01 09:20:29;;;;;;;20.90;7.07;;;11.70;99.90;;;;;;5043912;28;20128;-80
2022/01/01 09:22:55;;;;;;;17.00;8.05;;;11.70;99.90;;;;;;5043885;28;20040;-81
2022/01/01 09:25:20;;;;;;;11.43;7.10;;;11.80;99.90;;;;;;5047379;28;20057;-76
2022/01/01 09:27:46;;;;;;;11.65;7.40;;;11.80;99.90;;;;;;5049833;28;20052;-77
2022/01/01 09:30:12;;;;;;;19.35;7.95;;;11.80;99.90;;;;;;5047060;28;20041;-82
2022/01/01 09:32:38;;;;;;;16.10;8.23;;;11.80;99.90;;;;;;5040548;28;20674;-79
2022/01/01 09:35:05;;;;;;;17.42;8.25;;;11.90;99.90;;;;;;5034589;28;20096;-79
2022/01/01 09:37:32;;;;;;;16.38;9.18;;;11.90;99.90;;;;;;5036591;28;20065;-84
2022/01/01 09:39:59;;;;;;;18.08;7.97;;;11.90;99.90;;;;;;5046201;28;20045;-80
2022/01/01 09:42:25;;;;;;;13.23;7.40;;;11.90;99.90;;;;;;5026891;28;20041;-80
2022/01/01 09:44:54;;;;;;;14.52;7.03;;;12.00;99.90;;;;;;5046766;28;20481;-79
2022/01/01 09:47:20;;;;;;;15.55;7.05;;;12.00;99.90;;;;;;5031647;28;20045;-78
2022/01/01 09:49:46;;;;;;;15.02;8.43;;;12.00;99.90;;;;;;5049635;28;20047;-78
2022/01/01 09:52:14;;;;;;;13.70;7.65;;;12.10;99.90;;;;;;5019615;28;20041;-77
2022/01/01 09:54:41;;;;;;;15.77;6.10;;;12.10;99.90;;;;;;5047942;28;20530;-77
2022/01/01 09:57:10;;;;;;;28.83;7.90;;;12.10;99.90;;;;;;5046800;28;20046;-78
2022/01/01 09:59:37;;;;;;;9.55;6.55;;;12.20;99.90;;;;;;5048515;28;20075;-80
2022/01/01 10:02:03;;;;;;;13.95;6.40;;;12.30;99.90;;;;;;5054818;28;20037;-78
2022/01/01 10:04:39;;;;;;;;;;;12.30;99.90;;;;;;5041002;28;20069;-78
2022/01/01 10:07:06;;;;;;;11.45;6.55;;;12.30;99.90;;;;;;5039163;28;19917;-78
2022/01/01 10:09:37;;;;;;;22.60;6.70;;;12.40;99.90;;;;;;5061656;28;20056;-80
2022/01/01 10:12:06;;;;;;;17.08;6.75;;;12.40;99.90;;;;;;5054520;28;20124;-79
2022/01/01 10:14:43;;;;;;;12.13;6.15;;;12.40;99.90;;;;;;5041047;28;20053;-79
2022/01/01 10:17:15;;;;;;;10.93;5.72;;;12.40;99.90;;;;;;5024435;28;20134;-80
2022/01/01 10:19:41;;;;;;;14.77;6.22;;;12.40;99.90;;;;;;5029431;28;20513;-80
2022/01/01 10:22:11;;;;;;;;;;;12.50;99.90;;;;;;5041371;28;20040;-78
2022/01/01 10:27:47;;;;;;;7.68;5.07;;;12.50;99.90;;;;;;5022364;28;20048;-80
2022/01/01 10:30:32;;;;;;;10.27;5.63;;;12.50;99.90;;;;;;5053870;28;20078;-78
2022/01/01 10:33:12;;;;;;;6.25;4.45;;;12.50;99.90;;;;;;5048492;28;20049;-80
2022/01/01 10:35:47;;;;;;;9.38;4.13;;;12.60;99.90;;;;;;5040787;28;20072;-78
2022/01/01 10:38:14;;;;;;;9.88;4.15;;;12.60;99.90;;;;;;5073940;28;20032;-77
2022/01/01 10:40:40;;;;;;;12.18;4.80;;;12.60;99.90;;;;;;5045173;28;20473;-77
2022/01/01 10:43:07;;;;;;;5.35;3.80;;;12.60;99.90;;;;;;5043493;28;20037;-81
2022/01/01 10:45:41;;;;;;;5.47;3.90;;;12.60;99.90;;;;;;5034211;28;20053;-77
2022/01/01 10:48:28;;;;;;;11.30;5.72;;;12.60;99.90;;;;;;5043275;28;20382;-81
2022/01/01 10:50:55;;;;;;;6.70;4.35;;;12.60;99.90;;;;;;5046626;28;20076;-79
2022/01/01 10:53:23;;;;;;;9.70;5.40;;;12.70;99.90;;;;;;5046353;28;20102;-80
2022/01/01 10:55:54;;;;;;;6.88;4.38;;;12.60;99.90;;;;;;5050471;28;20076;-79
2022/01/01 10:58:23;;;;;;;10.40;3.88;;;12.60;99.90;;;;;;5052221;28;20444;-79
2022/01/01 11:00:49;;;;;;;7.10;4.60;;;12.60;99.90;;;;;;5050704;28;20056;-79
2022/01/01 11:03:17;;;;;;;16.85;4.63;;;12.60;99.90;;;;;;5046530;28;20047;-80
2022/01/01 11:05:45;;;;;;;9.23;4.97;;;12.60;99.90;;;;;;5048656;28;20490;-79
2022/01/01 11:08:11;;;;;;;12.35;4.15;;;12.70;99.90;;;;;;5051560;28;20550;-79
2022/01/01 11:10:38;;;;;;;5.93;3.95;;;12.70;99.90;;;;;;5051795;28;20045;-79
2022/01/01 11:13:06;;;;;;;5.47;3.67;;;12.70;99.90;;;;;;5052616;28;20063;-80
2022/01/01 11:15:33;;;;;;;11.48;4.05;;;12.70;99.90;;;;;;5053069;28;20531;-79
2022/01/01 11:17:59;;;;;;;12.68;3.85;;;12.70;99.90;;;;;;5080617;28;20511;-79
2022/01/01 11:20:30;;;;;;;8.65;4.32;;;12.60;99.90;;;;;;5042952;28;20091;-80
2022/01/01 11:22:56;;;;;;;6.30;3.33;;;12.70;99.90;;;;;;5048128;28;20148;-79
2022/01/01 11:25:22;;;;;;;;;;;12.70;99.90;;;;;;5031328;28;20048;-80
2022/01/01 11:27:48;;;;;;;7.00;3.78;;;12.70;99.90;;;;;;5066721;28;19917;-79
2022/01/01 11:30:16;;;;;;;12.43;4.00;;;12.70;99.90;;;;;;5042112;28;20094;-79
2022/01/01 11:32:55;;;;;;;3.45;3.00;;;12.70;99.90;;;;;;5029646;28;20040;-79
2022/01/01 11:35:30;;;;;;;11.05;5.35;;;12.70;99.90;;;;;;5049488;28;20124;-80
2022/01/01 11:38:10;;;;;;;9.88;4.47;;;12.70;99.90;;;;;;5048939;28;20052;-79
2022/01/01 11:40:55;;;;;;;6.10;4.10;;;12.70;99.90;;;;;;5031065;28;20061;-80
2022/01/01 11:43:37;;;;;;;9.65;3.25;;;12.70;99.90;;;;;;5050613;28;20442;-79
2022/01/01 11:46:29;;;;;;;7.25;4.85;;;12.70;99.90;;;;;;5033759;28;20043;-79
2022/01/01 11:49:03;;;;;;;6.43;3.08;;;12.80;99.90;;;;;;5049926;28;20091;-79
2022/01/01 11:51:36;;;;;;;10.82;4.15;;;12.80;99.90;;;;;;5047320;28;20047;-80
2022/01/01 11:54:27;;;;;;;6.53;3.83;;;12.90;99.90;;;;;;5051224;28;20091;-79
2022/01/01 11:56:58;;;;;;;5.57;3.55;;;12.90;99.90;;;;;;5049523;28;20059;-80
2022/01/01 11:59:30;;;;;;;12.00;3.88;;;12.90;99.90;;;;;;5049621;28;20045;-80
2022/01/01 12:02:03;;;;;;;5.32;2.33;;;12.90;99.90;;;;;;5040881;28;20037;-79
2022/01/01 12:04:36;;;;;;;6.47;3.85;;;12.90;99.90;;;;;;5047946;28;20434;-79
2022/01/01 12:07:15;;;;;;;4.53;3.17;;;12.90;99.90;;;;;;5043904;28;20037;-79
2022/01/01 12:10:00;;;;;;;4.65;3.17;;;12.90;99.90;;;;;;5045103;28;20041;-80
2022/01/01 12:12:50;;;;;;;5.80;3.45;;;12.80;99.90;;;;;;5058798;28;20416;-78
2022/01/01 12:15:37;;;;;;;5.32;2.90;;;12.90;99.90;;;;;;5045763;28;20045;-80
2022/01/01 12:18:08;;;;;;;4.20;2.80;;;12.10;99.90;;;;;;5030985;28;20033;-83
2022/01/01 12:20:41;;;;;;;7.35;3.75;;;12.90;99.90;;;;;;5043723;28;20067;-79
2022/01/01 12:23:13;;;;;;;5.40;2.20;;;12.90;99.90;;;;;;5056577;28;20037;-81
2022/01/01 12:25:41;;;;;;;6.75;2.65;;;12.80;99.90;;;;;;5041738;28;20667;-77
2022/01/01 12:28:09;;;;;;;5.10;2.85;;;12.80;99.90;;;;;;5042661;28;20045;-81
2022/01/01 12:30:42;;;;;;;4.82;2.53;;;12.80;99.90;;;;;;5042725;28;20064;-82
2022/01/01 12:33:10;;;;;;;4.03;2.47;;;12.80;99.90;;;;;;5048591;28;20102;-78
2022/01/01 12:35:49;;;;;;;5.03;2.63;;;12.80;99.90;;;;;;5028676;28;20069;-79
2022/01/01 12:38:21;;;;;;;3.25;2.55;;;12.90;99.90;;;;;;5071484;28;20397;-84
2022/01/01 12:41:03;;;;;;;5.82;2.50;;;12.90;99.90;;;;;;5037024;28;20056;-83
2022/01/01 12:43:31;;;;;;;3.85;2.22;;;12.90;99.90;;;;;;5040265;28;20106;-80
2022/01/01 12:45:59;;;;;;;3.08;2.53;;;12.90;99.90;;;;;;5041848;28;20076;-80